sensor_id;sensor_type;location;lat;lon;timestamp;temperature;humidity
13093;DHT22;6612;49.568;11.000;2022-10-03T00:01:57;13.20;75.40
13093;DHT22;6612;49.568;11.000;2022-10-03T00:04:38;13.20;75.40
13093;DHT22;6612;49.568;11.000;2022-10-03T00:07:13;13.10;75.30
13093;DHT22;6612;49.568;11.000;2022-10-03T00:10:05;13.10;75.40
13093;DHT22;6612;49.568;11.000;2022-10-03T00:12:49;13.10;75.50
13093;DHT22;6612;49.568;11.000;2022-10-03T00:15:23;13.10;75.60
13093;DHT22;6612;49.568;11.000;2022-10-03T00:18:01;13.10;75.60
13093;DHT22;6612;49.568;11.000;2022-10-03T00:20:45;13.10;75.60
13093;DHT22;6612;49.568;11.000;2022-10-03T00:23:19;13.10;75.50
13093;DHT22;6612;49.568;11.000;2022-10-03T00:25:54;13.00;75.40
13093;DHT22;6612;49.568;11.000;2022-10-03T00:28:48;13.00;75.40
13093;DHT22;6612;49.568;11.000;2022-10-03T00:31:18;13.00;75.30
13093;DHT22;6612;49.568;11.000;2022-10-03T00:33:58;13.00;75.40
13093;DHT22;6612;49.568;11.000;2022-10-03T00:36:35;13.00;75.40
13093;DHT22;6612;49.568;11.000;2022-10-03T00:39:34;13.00;75.30
13093;DHT22;6612;49.568;11.000;2022-10-03T00:42:35;12.90;75.10
13093;DHT22;6612;49.568;11.000;2022-10-03T00:51:33;12.90;75.00
13093;DHT22;6612;49.568;11.000;2022-10-03T00:54:19;12.90;75.00
13093;DHT22;6612;49.568;11.000;2022-10-03T00:57:05;12.80;74.90
13093;DHT22;6612;49.568;11.000;2022-10-03T00:59:47;12.80;74.90
13093;DHT22;6612;49.568;11.000;2022-10-03T01:02:40;12.80;74.90
13093;DHT22;6612;49.568;11.000;2022-10-03T01:05:16;12.80;74.80
13093;DHT22;6612;49.568;11.000;2022-10-03T01:08:02;12.70;74.70
13093;DHT22;6612;49.568;11.000;2022-10-03T01:10:36;12.70;74.70
13093;DHT22;6612;49.568;11.000;2022-10-03T01:13:23;12.60;74.70
13093;DHT22;6612;49.568;11.000;2022-10-03T01:16:02;12.60;74.70
13093;DHT22;6612;49.568;11.000;2022-10-03T01:18:40;12.60;74.70
13093;DHT22;6612;49.568;11.000;2022-10-03T01:21:16;12.60;75.40
13093;DHT22;6612;49.568;11.000;2022-10-03T01:24:03;12.50;74.60
13093;DHT22;6612;49.568;11.000;2022-10-03T01:26:50;12.50;74.60
13093;DHT22;6612;49.568;11.000;2022-10-03T01:32:24;12.50;74.60
13093;DHT22;6612;49.568;11.000;2022-10-03T01:34:59;12.40;74.50
13093;DHT22;6612;49.568;11.000;2022-10-03T01:37:32;12.50;74.60
13093;DHT22;6612;49.568;11.000;2022-10-03T01:40:09;12.40;74.60
13093;DHT22;6612;49.568;11.000;2022-10-03T01:42:43;12.40;74.60
13093;DHT22;6612;49.568;11.000;2022-10-03T01:45:25;12.40;74.60
13093;DHT22;6612;49.568;11.000;2022-10-03T01:47:59;12.40;74.50
13093;DHT22;6612;49.568;11.000;2022-10-03T01:50:31;12.40;74.50
13093;DHT22;6612;49.568;11.000;2022-10-03T01:53:05;12.40;74.50
13093;DHT22;6612;49.568;11.000;2022-10-03T01:55:44;12.30;74.40
13093;DHT22;6612;49.568;11.000;2022-10-03T01:58:22;12.30;74.50
13093;DHT22;6612;49.568;11.000;2022-10-03T02:00:58;12.30;74.50
13093;DHT22;6612;49.568;11.000;2022-10-03T02:03:30;12.30;74.00
13093;DHT22;6612;49.568;11.000;2022-10-03T02:06:06;12.20;74.60
13093;DHT22;6612;49.568;11.000;2022-10-03T02:08:46;12.20;74.50
13093;DHT22;6612;49.568;11.000;2022-10-03T02:11:28;12.30;74.60
13093;DHT22;6612;49.568;11.000;2022-10-03T02:13:58;12.20;74.50
13093;DHT22;6612;49.568;11.000;2022-10-03T02:16:39;12.20;74.60
13093;DHT22;6612;49.568;11.000;2022-10-03T02:19:15;12.10;75.20
13093;DHT22;6612;49.568;11.000;2022-10-03T02:21:48;12.20;74.60
13093;DHT22;6612;49.568;11.000;2022-10-03T02:24:26;12.20;74.80
13093;DHT22;6612;49.568;11.000;2022-10-03T02:27:12;12.10;74.70
13093;DHT22;6612;49.568;11.000;2022-10-03T02:30:04;12.10;74.70
13093;DHT22;6612;49.568;11.000;2022-10-03T02:33:10;12.10;74.90
13093;DHT22;6612;49.568;11.000;2022-10-03T02:36:21;12.10;75.00
13093;DHT22;6612;49.568;11.000;2022-10-03T02:39:38;12.10;75.20
13093;DHT22;6612;49.568;11.000;2022-10-03T02:42:33;12.10;75.40
13093;DHT22;6612;49.568;11.000;2022-10-03T02:48:36;12.20;76.90
13093;DHT22;6612;49.568;11.000;2022-10-03T02:54:41;12.20;77.30
13093;DHT22;6612;49.568;11.000;2022-10-03T03:00:19;12.30;76.40
13093;DHT22;6612;49.568;11.000;2022-10-03T03:03:21;12.30;76.40
13093;DHT22;6612;49.568;11.000;2022-10-03T03:06:22;12.30;76.30
13093;DHT22;6612;49.568;11.000;2022-10-03T03:09:19;12.30;75.40
13093;DHT22;6612;49.568;11.000;2022-10-03T03:12:15;12.30;76.00
13093;DHT22;6612;49.568;11.000;2022-10-03T03:18:00;12.20;75.70
13093;DHT22;6612;49.568;11.000;2022-10-03T03:20:47;12.30;75.70
13093;DHT22;6612;49.568;11.000;2022-10-03T03:23:30;12.20;75.50
13093;DHT22;6612;49.568;11.000;2022-10-03T03:29:00;12.20;75.40
13093;DHT22;6612;49.568;11.000;2022-10-03T03:31:36;12.20;75.20
13093;DHT22;6612;49.568;11.000;2022-10-03T03:34:15;12.10;75.00
13093;DHT22;6612;49.568;11.000;2022-10-03T03:36:51;12.10;74.90
13093;DHT22;6612;49.568;11.000;2022-10-03T03:39:43;12.10;74.90
13093;DHT22;6612;49.568;11.000;2022-10-03T03:42:42;12.10;74.80
13093;DHT22;6612;49.568;11.000;2022-10-03T03:45:34;12.00;74.70
13093;DHT22;6612;49.568;11.000;2022-10-03T03:48:22;12.00;75.30
13093;DHT22;6612;49.568;11.000;2022-10-03T03:51:04;12.00;74.50
13093;DHT22;6612;49.568;11.000;2022-10-03T03:54:10;11.90;73.60
13093;DHT22;6612;49.568;11.000;2022-10-03T03:57:01;11.90;74.20
13093;DHT22;6612;49.568;11.000;2022-10-03T04:00:05;11.90;74.10
13093;DHT22;6612;49.568;11.000;2022-10-03T04:02:43;11.90;74.00
13093;DHT22;6612;49.568;11.000;2022-10-03T04:05:18;11.80;74.00
13093;DHT22;6612;49.568;11.000;2022-10-03T04:08:02;11.80;74.00
13093;DHT22;6612;49.568;11.000;2022-10-03T04:10:50;11.80;74.00
13093;DHT22;6612;49.568;11.000;2022-10-03T04:13:32;11.70;73.80
13093;DHT22;6612;49.568;11.000;2022-10-03T04:16:14;11.70;73.90
13093;DHT22;6612;49.568;11.000;2022-10-03T04:19:09;11.60;73.80
13093;DHT22;6612;49.568;11.000;2022-10-03T04:21:57;11.60;73.80
13093;DHT22;6612;49.568;11.000;2022-10-03T04:24:41;11.60;73.80
13093;DHT22;6612;49.568;11.000;2022-10-03T04:27:35;11.60;73.80
13093;DHT22;6612;49.568;11.000;2022-10-03T04:30:08;11.60;73.90
13093;DHT22;6612;49.568;11.000;2022-10-03T04:33:09;11.50;74.00
13093;DHT22;6612;49.568;11.000;2022-10-03T04:38:42;11.50;74.90
13093;DHT22;6612;49.568;11.000;2022-10-03T04:41:20;11.40;74.00
13093;DHT22;6612;49.568;11.000;2022-10-03T04:44:00;11.50;74.10
13093;DHT22;6612;49.568;11.000;2022-10-03T04:46:33;11.50;74.00
13093;DHT22;6612;49.568;11.000;2022-10-03T04:49:10;11.40;74.80
13093;DHT22;6612;49.568;11.000;2022-10-03T04:51:47;11.40;74.00
13093;DHT22;6612;49.568;11.000;2022-10-03T04:54:23;11.40;74.10
13093;DHT22;6612;49.568;11.000;2022-10-03T04:56:58;11.40;74.10
13093;DHT22;6612;49.568;11.000;2022-10-03T04:59:44;11.40;74.20
13093;DHT22;6612;49.568;11.000;2022-10-03T05:02:33;11.40;74.20
13093;DHT22;6612;49.568;11.000;2022-10-03T05:08:05;11.30;74.00
13093;DHT22;6612;49.568;11.000;2022-10-03T05:10:51;11.30;74.00
13093;DHT22;6612;49.568;11.000;2022-10-03T05:13:34;11.30;74.00
13093;DHT22;6612;49.568;11.000;2022-10-03T05:16:14;11.30;74.10
13093;DHT22;6612;49.568;11.000;2022-10-03T05:18:46;11.30;74.30
13093;DHT22;6612;49.568;11.000;2022-10-03T05:21:25;11.30;74.70
13093;DHT22;6612;49.568;11.000;2022-10-03T05:24:01;11.30;75.00
13093;DHT22;6612;49.568;11.000;2022-10-03T05:26:42;11.30;75.40
13093;DHT22;6612;49.568;11.000;2022-10-03T05:29:23;11.30;75.60
13093;DHT22;6612;49.568;11.000;2022-10-03T05:32:04;11.40;75.90
13093;DHT22;6612;49.568;11.000;2022-10-03T05:34:43;11.40;76.10
13093;DHT22;6612;49.568;11.000;2022-10-03T05:37:27;11.50;76.30
13093;DHT22;6612;49.568;11.000;2022-10-03T05:40:01;11.40;76.40
13093;DHT22;6612;49.568;11.000;2022-10-03T05:42:35;11.50;76.90
13093;DHT22;6612;49.568;11.000;2022-10-03T05:45:06;11.60;77.20
13093;DHT22;6612;49.568;11.000;2022-10-03T05:47:48;11.60;77.60
13093;DHT22;6612;49.568;11.000;2022-10-03T05:50:36;11.70;77.90
13093;DHT22;6612;49.568;11.000;2022-10-03T05:53:31;11.70;78.50
13093;DHT22;6612;49.568;11.000;2022-10-03T05:56:07;11.80;78.40
13093;DHT22;6612;49.568;11.000;2022-10-03T05:58:55;11.90;78.60
13093;DHT22;6612;49.568;11.000;2022-10-03T06:01:56;12.00;78.70
13093;DHT22;6612;49.568;11.000;2022-10-03T06:04:59;12.00;78.80
13093;DHT22;6612;49.568;11.000;2022-10-03T06:07:29;12.10;79.60
13093;DHT22;6612;49.568;11.000;2022-10-03T06:10:19;12.20;79.30
13093;DHT22;6612;49.568;11.000;2022-10-03T06:13:00;12.30;79.50
13093;DHT22;6612;49.568;11.000;2022-10-03T06:15:46;12.30;80.60
13093;DHT22;6612;49.568;11.000;2022-10-03T06:24:49;12.60;80.50
13093;DHT22;6612;49.568;11.000;2022-10-03T06:30:39;12.80;81.00
13093;DHT22;6612;49.568;11.000;2022-10-03T06:33:34;12.90;81.30
13093;DHT22;6612;49.568;11.000;2022-10-03T06:36:36;13.00;81.50
13093;DHT22;6612;49.568;11.000;2022-10-03T06:39:49;13.10;81.80
13093;DHT22;6612;49.568;11.000;2022-10-03T06:42:57;13.20;82.10
13093;DHT22;6612;49.568;11.000;2022-10-03T06:46:00;13.30;82.50
13093;DHT22;6612;49.568;11.000;2022-10-03T06:52:06;13.50;83.20
13093;DHT22;6612;49.568;11.000;2022-10-03T06:57:59;13.80;84.20
13093;DHT22;6612;49.568;11.000;2022-10-03T07:00:46;13.90;84.50
13093;DHT22;6612;49.568;11.000;2022-10-03T07:06:42;14.20;85.40
13093;DHT22;6612;49.568;11.000;2022-10-03T07:10:07;14.30;84.70
13093;DHT22;6612;49.568;11.000;2022-10-03T07:13:01;14.40;85.00
13093;DHT22;6612;49.568;11.000;2022-10-03T07:19:05;14.70;86.50
13093;DHT22;6612;49.568;11.000;2022-10-03T07:25:25;15.00;87.70
13093;DHT22;6612;49.568;11.000;2022-10-03T07:28:15;15.30;90.50
13093;DHT22;6612;49.568;11.000;2022-10-03T07:30:56;15.70;92.10
13093;DHT22;6612;49.568;11.000;2022-10-03T07:33:37;16.60;96.60
13093;DHT22;6612;49.568;11.000;2022-10-03T07:36:30;16.70;97.60
13093;DHT22;6612;49.568;11.000;2022-10-03T07:42:39;17.90;97.10
13093;DHT22;6612;49.568;11.000;2022-10-03T07:45:33;18.30;95.00
13093;DHT22;6612;49.568;11.000;2022-10-03T07:48:36;18.50;93.30
13093;DHT22;6612;49.568;11.000;2022-10-03T07:51:18;18.70;91.50
13093;DHT22;6612;49.568;11.000;2022-10-03T07:54:15;18.80;89.80
13093;DHT22;6612;49.568;11.000;2022-10-03T07:57:17;18.80;86.10
13093;DHT22;6612;49.568;11.000;2022-10-03T08:06:16;18.90;86.80
13093;DHT22;6612;49.568;11.000;2022-10-03T08:09:07;19.10;88.60
13093;DHT22;6612;49.568;11.000;2022-10-03T08:12:01;19.20;86.60
13093;DHT22;6612;49.568;11.000;2022-10-03T08:14:43;19.30;84.40
13093;DHT22;6612;49.568;11.000;2022-10-03T08:20:43;19.40;81.90
13093;DHT22;6612;49.568;11.000;2022-10-03T08:23:36;19.40;80.50
13093;DHT22;6612;49.568;11.000;2022-10-03T08:26:16;19.40;80.40
13093;DHT22;6612;49.568;11.000;2022-10-03T08:29:09;19.40;81.80
13093;DHT22;6612;49.568;11.000;2022-10-03T08:31:55;19.40;81.20
13093;DHT22;6612;49.568;11.000;2022-10-03T08:34:53;19.40;81.60
13093;DHT22;6612;49.568;11.000;2022-10-03T08:47:15;19.60;81.60
13093;DHT22;6612;49.568;11.000;2022-10-03T08:50:21;19.80;82.70
13093;DHT22;6612;49.568;11.000;2022-10-03T08:55:59;20.00;80.30
13093;DHT22;6612;49.568;11.000;2022-10-03T08:58:58;20.10;82.10
13093;DHT22;6612;49.568;11.000;2022-10-03T09:01:56;20.10;78.50
13093;DHT22;6612;49.568;11.000;2022-10-03T09:04:55;20.20;77.60
13093;DHT22;6612;49.568;11.000;2022-10-03T09:07:48;20.20;76.40
13093;DHT22;6612;49.568;11.000;2022-10-03T09:10:36;20.10;75.70
13093;DHT22;6612;49.568;11.000;2022-10-03T09:19:40;20.00;76.40
13093;DHT22;6612;49.568;11.000;2022-10-03T09:25:27;20.10;78.40
13093;DHT22;6612;49.568;11.000;2022-10-03T09:28:36;20.20;80.50
13093;DHT22;6612;49.568;11.000;2022-10-03T09:31:15;20.20;77.80
13093;DHT22;6612;49.568;11.000;2022-10-03T09:34:06;20.30;77.30
13093;DHT22;6612;49.568;11.000;2022-10-03T09:40:37;20.30;74.10
13093;DHT22;6612;49.568;11.000;2022-10-03T09:43:46;20.20;73.60
13093;DHT22;6612;49.568;11.000;2022-10-03T09:50:16;20.10;75.30
13093;DHT22;6612;49.568;11.000;2022-10-03T09:53:18;20.20;77.20
13093;DHT22;6612;49.568;11.000;2022-10-03T09:56:09;20.30;76.90
13093;DHT22;6612;49.568;11.000;2022-10-03T09:58:58;20.40;76.10
13093;DHT22;6612;49.568;11.000;2022-10-03T10:01:33;20.40;75.10
13093;DHT22;6612;49.568;11.000;2022-10-03T10:04:39;20.40;75.20
13093;DHT22;6612;49.568;11.000;2022-10-03T10:19:52;20.10;73.90
13093;DHT22;6612;49.568;11.000;2022-10-03T10:22:49;20.10;73.10
13093;DHT22;6612;49.568;11.000;2022-10-03T10:25:49;20.10;72.00
13093;DHT22;6612;49.568;11.000;2022-10-03T10:28:55;20.00;71.50
13093;DHT22;6612;49.568;11.000;2022-10-03T10:47:15;20.10;75.40
13093;DHT22;6612;49.568;11.000;2022-10-03T11:00:12;20.60;72.60
13093;DHT22;6612;49.568;11.000;2022-10-03T11:09:36;20.50;70.20
13093;DHT22;6612;49.568;11.000;2022-10-03T11:12:56;20.40;69.90
13093;DHT22;6612;49.568;11.000;2022-10-03T11:22:56;20.40;71.20
13093;DHT22;6612;49.568;11.000;2022-10-03T11:25:55;20.40;71.30
13093;DHT22;6612;49.568;11.000;2022-10-03T11:28:51;20.40;70.80
13093;DHT22;6612;49.568;11.000;2022-10-03T11:31:47;20.30;69.70
13093;DHT22;6612;49.568;11.000;2022-10-03T11:35:01;20.30;68.70
13093;DHT22;6612;49.568;11.000;2022-10-03T11:37:39;20.20;67.80
13093;DHT22;6612;49.568;11.000;2022-10-03T11:40:22;20.10;69.30
13093;DHT22;6612;49.568;11.000;2022-10-03T11:43:17;20.00;67.60
13093;DHT22;6612;49.568;11.000;2022-10-03T11:45:52;19.90;67.10
13093;DHT22;6612;49.568;11.000;2022-10-03T11:48:37;19.80;68.50
13093;DHT22;6612;49.568;11.000;2022-10-03T11:51:07;19.80;66.80
13093;DHT22;6612;49.568;11.000;2022-10-03T11:53:43;19.70;69.00
13093;DHT22;6612;49.568;11.000;2022-10-03T11:56:19;19.70;68.60
13093;DHT22;6612;49.568;11.000;2022-10-03T11:59:00;19.70;67.80
13093;DHT22;6612;49.568;11.000;2022-10-03T12:01:46;19.70;68.10
13093;DHT22;6612;49.568;11.000;2022-10-03T12:04:22;19.70;66.20
13093;DHT22;6612;49.568;11.000;2022-10-03T12:06:59;19.70;67.20
13093;DHT22;6612;49.568;11.000;2022-10-03T12:09:57;19.70;65.70
13093;DHT22;6612;49.568;11.000;2022-10-03T12:12:37;19.70;66.50
13093;DHT22;6612;49.568;11.000;2022-10-03T12:15:22;19.80;67.20
13093;DHT22;6612;49.568;11.000;2022-10-03T12:17:57;19.80;66.40
13093;DHT22;6612;49.568;11.000;2022-10-03T12:20:34;19.90;67.70
13093;DHT22;6612;49.568;11.000;2022-10-03T12:23:16;20.00;67.60
13093;DHT22;6612;49.568;11.000;2022-10-03T12:25:48;20.10;66.80
13093;DHT22;6612;49.568;11.000;2022-10-03T12:28:19;20.10;67.30
13093;DHT22;6612;49.568;11.000;2022-10-03T12:30:53;20.20;66.50
13093;DHT22;6612;49.568;11.000;2022-10-03T12:33:42;20.20;65.90
13093;DHT22;6612;49.568;11.000;2022-10-03T12:36:12;20.20;65.20
13093;DHT22;6612;49.568;11.000;2022-10-03T12:38:55;20.20;65.90
13093;DHT22;6612;49.568;11.000;2022-10-03T12:41:43;20.30;64.40
13093;DHT22;6612;49.568;11.000;2022-10-03T12:44:27;20.30;64.10
13093;DHT22;6612;49.568;11.000;2022-10-03T12:47:10;20.30;63.90
13093;DHT22;6612;49.568;11.000;2022-10-03T12:49:52;20.30;64.20
13093;DHT22;6612;49.568;11.000;2022-10-03T12:52:25;20.30;64.30
13093;DHT22;6612;49.568;11.000;2022-10-03T12:55:05;20.30;65.10
13093;DHT22;6612;49.568;11.000;2022-10-03T12:57:47;20.40;64.40
13093;DHT22;6612;49.568;11.000;2022-10-03T13:00:20;20.40;64.30
13093;DHT22;6612;49.568;11.000;2022-10-03T13:03:04;20.40;65.80
13093;DHT22;6612;49.568;11.000;2022-10-03T13:05:38;20.50;64.50
13093;DHT22;6612;49.568;11.000;2022-10-03T13:08:26;20.60;65.40
13093;DHT22;6612;49.568;11.000;2022-10-03T13:11:07;20.60;64.50
13093;DHT22;6612;49.568;11.000;2022-10-03T13:13:48;20.80;65.60
13093;DHT22;6612;49.568;11.000;2022-10-03T13:16:24;20.70;64.10
13093;DHT22;6612;49.568;11.000;2022-10-03T13:19:02;20.70;64.20
13093;DHT22;6612;49.568;11.000;2022-10-03T13:21:46;20.70;62.40
13093;DHT22;6612;49.568;11.000;2022-10-03T13:24:25;20.70;61.80
13093;DHT22;6612;49.568;11.000;2022-10-03T13:27:04;20.60;61.40
13093;DHT22;6612;49.568;11.000;2022-10-03T13:29:39;20.50;61.10
13093;DHT22;6612;49.568;11.000;2022-10-03T13:32:27;20.40;61.00
13093;DHT22;6612;49.568;11.000;2022-10-03T13:35:03;20.20;59.20
13093;DHT22;6612;49.568;11.000;2022-10-03T13:38:07;20.10;60.60
13093;DHT22;6612;49.568;11.000;2022-10-03T13:40:39;19.90;59.90
13093;DHT22;6612;49.568;11.000;2022-10-03T13:43:13;19.80;61.30
13093;DHT22;6612;49.568;11.000;2022-10-03T13:45:42;19.70;61.30
13093;DHT22;6612;49.568;11.000;2022-10-03T13:48:13;19.60;61.60
13093;DHT22;6612;49.568;11.000;2022-10-03T13:50:47;19.50;61.80
13093;DHT22;6612;49.568;11.000;2022-10-03T13:53:33;19.50;61.80
13093;DHT22;6612;49.568;11.000;2022-10-03T13:56:08;19.40;61.80
13093;DHT22;6612;49.568;11.000;2022-10-03T13:58:43;19.50;62.30
13093;DHT22;6612;49.568;11.000;2022-10-03T14:04:44;19.40;61.50
13093;DHT22;6612;49.568;11.000;2022-10-03T14:07:19;19.50;61.10
13093;DHT22;6612;49.568;11.000;2022-10-03T14:12:57;19.60;62.90
13093;DHT22;6612;49.568;11.000;2022-10-03T14:15:40;19.60;62.90
13093;DHT22;6612;49.568;11.000;2022-10-03T14:18:20;19.70;62.90
13093;DHT22;6612;49.568;11.000;2022-10-03T14:24:15;19.90;62.30
13093;DHT22;6612;49.568;11.000;2022-10-03T14:26:52;20.00;63.20
13093;DHT22;6612;49.568;11.000;2022-10-03T14:29:27;20.10;63.50
13093;DHT22;6612;49.568;11.000;2022-10-03T14:32:00;20.10;63.40
13093;DHT22;6612;49.568;11.000;2022-10-03T14:34:41;20.20;63.40
13093;DHT22;6612;49.568;11.000;2022-10-03T14:37:22;20.30;62.00
13093;DHT22;6612;49.568;11.000;2022-10-03T14:40:03;20.30;61.30
13093;DHT22;6612;49.568;11.000;2022-10-03T14:43:10;20.30;60.60
13093;DHT22;6612;49.568;11.000;2022-10-03T14:45:48;20.30;59.60
13093;DHT22;6612;49.568;11.000;2022-10-03T14:48:18;20.30;61.30
13093;DHT22;6612;49.568;11.000;2022-10-03T14:50:49;20.30;61.00
13093;DHT22;6612;49.568;11.000;2022-10-03T14:53:22;20.30;61.00
13093;DHT22;6612;49.568;11.000;2022-10-03T14:55:57;20.20;60.80
13093;DHT22;6612;49.568;11.000;2022-10-03T14:58:27;20.20;60.00
13093;DHT22;6612;49.568;11.000;2022-10-03T15:01:03;20.10;60.60
13093;DHT22;6612;49.568;11.000;2022-10-03T15:03:33;20.10;60.60
13093;DHT22;6612;49.568;11.000;2022-10-03T15:06:30;20.00;61.50
13093;DHT22;6612;49.568;11.000;2022-10-03T15:09:00;19.90;59.00
13093;DHT22;6612;49.568;11.000;2022-10-03T15:11:33;19.90;60.60
13093;DHT22;6612;49.568;11.000;2022-10-03T15:14:02;19.80;60.40
13093;DHT22;6612;49.568;11.000;2022-10-03T15:16:32;19.80;60.80
13093;DHT22;6612;49.568;11.000;2022-10-03T15:19:07;19.70;60.50
13093;DHT22;6612;49.568;11.000;2022-10-03T15:21:36;19.70;60.30
13093;DHT22;6612;49.568;11.000;2022-10-03T15:24:07;19.60;60.60
13093;DHT22;6612;49.568;11.000;2022-10-03T15:26:48;19.60;60.60
13093;DHT22;6612;49.568;11.000;2022-10-03T15:29:17;19.60;59.60
13093;DHT22;6612;49.568;11.000;2022-10-03T15:31:46;19.50;60.50
13093;DHT22;6612;49.568;11.000;2022-10-03T15:34:17;19.50;60.60
13093;DHT22;6612;49.568;11.000;2022-10-03T15:36:48;19.40;60.20
13093;DHT22;6612;49.568;11.000;2022-10-03T15:39:18;19.30;60.30
13093;DHT22;6612;49.568;11.000;2022-10-03T15:42:00;19.30;60.40
13093;DHT22;6612;49.568;11.000;2022-10-03T15:44:30;19.20;59.70
13093;DHT22;6612;49.568;11.000;2022-10-03T15:47:06;19.20;60.60
13093;DHT22;6612;49.568;11.000;2022-10-03T15:49:37;19.10;60.50
13093;DHT22;6612;49.568;11.000;2022-10-03T15:52:14;19.10;60.30
13093;DHT22;6612;49.568;11.000;2022-10-03T15:54:49;19.00;59.70
13093;DHT22;6612;49.568;11.000;2022-10-03T15:57:23;18.90;59.70
13093;DHT22;6612;49.568;11.000;2022-10-03T15:59:54;18.90;60.00
13093;DHT22;6612;49.568;11.000;2022-10-03T16:02:30;18.80;60.10
13093;DHT22;6612;49.568;11.000;2022-10-03T16:04:58;18.70;59.80
13093;DHT22;6612;49.568;11.000;2022-10-03T16:07:32;18.60;60.20
13093;DHT22;6612;49.568;11.000;2022-10-03T16:10:18;18.60;60.00
13093;DHT22;6612;49.568;11.000;2022-10-03T16:12:58;18.50;59.90
13093;DHT22;6612;49.568;11.000;2022-10-03T16:15:37;18.40;59.80
13093;DHT22;6612;49.568;11.000;2022-10-03T16:20:59;18.30;60.70
13093;DHT22;6612;49.568;11.000;2022-10-03T16:23:29;18.20;60.90
13093;DHT22;6612;49.568;11.000;2022-10-03T16:25:59;18.20;61.00
13093;DHT22;6612;49.568;11.000;2022-10-03T16:28:32;18.10;61.10
13093;DHT22;6612;49.568;11.000;2022-10-03T16:31:03;18.10;61.10
13093;DHT22;6612;49.568;11.000;2022-10-03T16:33:33;18.00;61.00
13093;DHT22;6612;49.568;11.000;2022-10-03T16:36:04;18.00;61.30
13093;DHT22;6612;49.568;11.000;2022-10-03T16:38:34;18.00;61.50
13093;DHT22;6612;49.568;11.000;2022-10-03T16:41:04;18.00;62.40
13093;DHT22;6612;49.568;11.000;2022-10-03T16:43:34;17.80;61.30
13093;DHT22;6612;49.568;11.000;2022-10-03T16:46:04;17.90;61.80
13093;DHT22;6612;49.568;11.000;2022-10-03T16:48:35;17.80;61.60
13093;DHT22;6612;49.568;11.000;2022-10-03T16:51:23;17.80;61.90
13093;DHT22;6612;49.568;11.000;2022-10-03T16:53:52;17.80;61.90
13093;DHT22;6612;49.568;11.000;2022-10-03T16:56:23;17.80;62.10
13093;DHT22;6612;49.568;11.000;2022-10-03T16:58:54;17.70;61.80
13093;DHT22;6612;49.568;11.000;2022-10-03T17:01:30;17.70;62.00
13093;DHT22;6612;49.568;11.000;2022-10-03T17:04:11;17.70;61.80
13093;DHT22;6612;49.568;11.000;2022-10-03T17:06:42;17.70;61.90
13093;DHT22;6612;49.568;11.000;2022-10-03T17:09:19;17.60;62.40
13093;DHT22;6612;49.568;11.000;2022-10-03T17:11:52;17.60;61.90
13093;DHT22;6612;49.568;11.000;2022-10-03T17:14:22;17.60;62.30
13093;DHT22;6612;49.568;11.000;2022-10-03T17:16:55;17.50;63.00
13093;DHT22;6612;49.568;11.000;2022-10-03T17:19:31;17.50;62.30
13093;DHT22;6612;49.568;11.000;2022-10-03T17:22:05;17.50;62.40
13093;DHT22;6612;49.568;11.000;2022-10-03T17:24:44;17.40;62.20
13093;DHT22;6612;49.568;11.000;2022-10-03T17:27:22;17.40;62.00
13093;DHT22;6612;49.568;11.000;2022-10-03T17:29:57;17.40;62.20
13093;DHT22;6612;49.568;11.000;2022-10-03T17:32:32;17.30;62.30
13093;DHT22;6612;49.568;11.000;2022-10-03T17:35:05;17.30;62.50
13093;DHT22;6612;49.568;11.000;2022-10-03T17:40:49;17.20;62.10
13093;DHT22;6612;49.568;11.000;2022-10-03T17:43:23;17.20;62.40
13093;DHT22;6612;49.568;11.000;2022-10-03T17:46:02;17.10;62.60
13093;DHT22;6612;49.568;11.000;2022-10-03T17:48:36;17.10;62.60
13093;DHT22;6612;49.568;11.000;2022-10-03T17:51:33;17.10;62.90
13093;DHT22;6612;49.568;11.000;2022-10-03T17:54:04;17.10;62.50
13093;DHT22;6612;49.568;11.000;2022-10-03T17:56:35;17.00;63.10
13093;DHT22;6612;49.568;11.000;2022-10-03T17:59:11;17.00;63.30
13093;DHT22;6612;49.568;11.000;2022-10-03T18:01:42;17.00;63.20
13093;DHT22;6612;49.568;11.000;2022-10-03T18:04:17;16.90;63.20
13093;DHT22;6612;49.568;11.000;2022-10-03T18:06:46;16.90;63.10
13093;DHT22;6612;49.568;11.000;2022-10-03T18:09:27;16.90;63.50
13093;DHT22;6612;49.568;11.000;2022-10-03T18:12:04;16.80;63.30
13093;DHT22;6612;49.568;11.000;2022-10-03T18:14:43;16.80;63.40
13093;DHT22;6612;49.568;11.000;2022-10-03T18:17:15;16.80;63.50
13093;DHT22;6612;49.568;11.000;2022-10-03T18:20:09;16.80;63.70
13093;DHT22;6612;49.568;11.000;2022-10-03T18:22:46;16.70;63.30
13093;DHT22;6612;49.568;11.000;2022-10-03T18:25:19;16.70;63.90
13093;DHT22;6612;49.568;11.000;2022-10-03T18:28:13;16.70;63.80
13093;DHT22;6612;49.568;11.000;2022-10-03T18:30:45;16.60;63.90
13093;DHT22;6612;49.568;11.000;2022-10-03T18:33:19;16.60;63.90
13093;DHT22;6612;49.568;11.000;2022-10-03T18:35:48;16.60;64.00
13093;DHT22;6612;49.568;11.000;2022-10-03T18:38:19;16.60;64.00
13093;DHT22;6612;49.568;11.000;2022-10-03T18:40:52;16.50;64.00
13093;DHT22;6612;49.568;11.000;2022-10-03T18:43:27;16.50;63.90
13093;DHT22;6612;49.568;11.000;2022-10-03T18:45:59;16.40;63.80
13093;DHT22;6612;49.568;11.000;2022-10-03T18:48:33;16.40;63.90
13093;DHT22;6612;49.568;11.000;2022-10-03T18:51:11;16.30;63.80
13093;DHT22;6612;49.568;11.000;2022-10-03T18:53:44;16.30;63.20
13093;DHT22;6612;49.568;11.000;2022-10-03T18:56:18;16.20;63.70
13093;DHT22;6612;49.568;11.000;2022-10-03T18:59:05;16.20;63.70
13093;DHT22;6612;49.568;11.000;2022-10-03T19:01:42;16.10;63.60
13093;DHT22;6612;49.568;11.000;2022-10-03T19:04:14;16.10;63.60
13093;DHT22;6612;49.568;11.000;2022-10-03T19:06:45;16.00;64.30
13093;DHT22;6612;49.568;11.000;2022-10-03T19:09:17;15.90;63.60
13093;DHT22;6612;49.568;11.000;2022-10-03T19:11:49;15.80;63.50
13093;DHT22;6612;49.568;11.000;2022-10-03T19:14:26;15.70;63.40
13093;DHT22;6612;49.568;11.000;2022-10-03T19:17:16;15.60;63.30
13093;DHT22;6612;49.568;11.000;2022-10-03T19:19:51;15.50;63.10
13093;DHT22;6612;49.568;11.000;2022-10-03T19:22:23;15.50;63.40
13093;DHT22;6612;49.568;11.000;2022-10-03T19:24:51;15.40;63.40
13093;DHT22;6612;49.568;11.000;2022-10-03T19:27:21;15.30;63.50
13093;DHT22;6612;49.568;11.000;2022-10-03T19:29:52;15.20;63.50
13093;DHT22;6612;49.568;11.000;2022-10-03T19:32:26;15.20;64.40
13093;DHT22;6612;49.568;11.000;2022-10-03T19:34:59;15.10;63.50
13093;DHT22;6612;49.568;11.000;2022-10-03T19:37:38;15.00;63.60
13093;DHT22;6612;49.568;11.000;2022-10-03T19:40:20;14.90;63.50
13093;DHT22;6612;49.568;11.000;2022-10-03T19:42:54;14.90;63.60
13093;DHT22;6612;49.568;11.000;2022-10-03T19:45:23;14.80;63.70
13093;DHT22;6612;49.568;11.000;2022-10-03T19:47:51;14.70;64.60